createdAt,value
2022-12-03T00:02:18.386Z,60.49
2022-12-03T00:04:45.203Z,60.94
2022-12-03T00:07:11.922Z,60.74
2022-12-03T00:09:38.714Z,60.70
2022-12-03T00:12:05.601Z,60.84
2022-12-03T00:14:32.377Z,60.84
2022-12-03T00:16:59.195Z,61.06
2022-12-03T00:19:25.886Z,61.05
2022-12-03T00:21:52.602Z,60.90
2022-12-03T00:24:19.373Z,60.81
2022-12-03T00:26:46.071Z,60.87
2022-12-03T00:29:12.791Z,60.89
2022-12-03T00:31:39.586Z,60.89
2022-12-03T00:34:06.325Z,60.72
2022-12-03T00:36:33.011Z,60.87
2022-12-03T00:38:59.765Z,61.15
2022-12-03T00:41:26.451Z,61.14
2022-12-03T00:43:57.472Z,61.04
2022-12-03T00:46:25.648Z,60.93
2022-12-03T00:48:52.827Z,61.36
2022-12-03T00:51:19.659Z,61.22
2022-12-03T00:53:46.725Z,61.38
2022-12-03T00:56:13.456Z,61.32
2022-12-03T00:58:40.239Z,61.57
2022-12-03T01:01:07.057Z,61.61
2022-12-03T01:03:33.943Z,61.60
2022-12-03T01:06:00.696Z,61.48
2022-12-03T01:08:27.483Z,61.51
2022-12-03T01:10:54.186Z,61.49
2022-12-03T01:13:21.023Z,61.69
2022-12-03T01:15:47.979Z,61.61
2022-12-03T01:18:15.524Z,61.95
2022-12-03T01:20:42.315Z,61.81
2022-12-03T01:23:09.090Z,61.81
2022-12-03T01:25:35.810Z,62.19
2022-12-03T01:28:02.600Z,61.98
2022-12-03T01:30:29.430Z,62.24
2022-12-03T01:32:58.780Z,62.17
2022-12-03T01:35:25.474Z,62.27
2022-12-03T01:37:52.326Z,62.13
2022-12-03T01:40:21.255Z,62.04
2022-12-03T01:42:48.093Z,62.32
2022-12-03T01:45:22.795Z,62.30
2022-12-03T01:47:49.676Z,62.21
2022-12-03T01:50:42.883Z,62.32
2022-12-03T01:53:14.532Z,62.51
2022-12-03T01:55:48.460Z,62.17
2022-12-03T01:58:16.502Z,62.25
2022-12-03T02:00:43.334Z,62.63
2022-12-03T02:03:19.414Z,62.74
2022-12-03T02:05:46.306Z,62.75
2022-12-03T02:08:34.105Z,62.90
2022-12-03T02:11:35.429Z,62.99
2022-12-03T02:14:12.493Z,63.07
2022-12-03T02:16:41.346Z,63.28
2022-12-03T02:19:26.879Z,63.62
2022-12-03T02:22:35.565Z,63.42
2022-12-03T02:25:02.197Z,63.55
2022-12-03T02:27:29.349Z,63.56
2022-12-03T02:29:56.816Z,63.46
2022-12-03T02:32:23.696Z,63.50
2022-12-03T02:34:52.004Z,63.46
2022-12-03T02:37:37.804Z,63.84
2022-12-03T02:40:09.273Z,63.86
2022-12-03T02:42:36.297Z,63.92
2022-12-03T02:45:34.630Z,64.12
2022-12-03T02:48:15.557Z,64.19
2022-12-03T02:50:46.686Z,64.33
2022-12-03T02:53:17.837Z,64.26
2022-12-03T02:55:45.511Z,64.53
2022-12-03T02:58:12.884Z,64.55
2022-12-03T03:00:40.207Z,64.74
2022-12-03T03:03:08.430Z,64.79
2022-12-03T03:05:37.486Z,64.57
2022-12-03T03:08:05.130Z,64.62
2022-12-03T03:10:33.747Z,64.64
2022-12-03T03:13:03.608Z,64.90
2022-12-03T03:15:30.452Z,64.68
2022-12-03T03:17:57.179Z,64.64
2022-12-03T03:20:24.182Z,64.53
2022-12-03T03:22:50.874Z,64.56
2022-12-03T03:25:21.253Z,64.40
2022-12-03T03:27:48.127Z,64.96
2022-12-03T03:30:15.087Z,64.55
2022-12-03T03:32:42.747Z,64.51
2022-12-03T03:35:12.094Z,64.35
2022-12-03T03:37:39.292Z,64.23
2022-12-03T03:40:07.102Z,63.91
2022-12-03T03:42:34.417Z,63.72
2022-12-03T03:45:01.329Z,63.44
2022-12-03T03:47:28.086Z,63.62
2022-12-03T03:49:55.005Z,63.59
2022-12-03T03:52:22.346Z,63.58
2022-12-03T03:54:49.460Z,63.66
2022-12-03T03:57:16.675Z,63.52
2022-12-03T03:59:43.508Z,63.23
2022-12-03T04:02:21.657Z,63.17
2022-12-03T04:04:48.949Z,63.08
2022-12-03T04:07:16.629Z,62.91
2022-12-03T04:09:43.967Z,62.71
2022-12-03T04:12:31.726Z,63.03
2022-12-03T04:14:59.252Z,62.91
2022-12-03T04:17:26.834Z,63.17
2022-12-03T04:19:53.682Z,62.99
2022-12-03T04:22:38.889Z,63.09
2022-12-03T04:25:25.048Z,62.96
2022-12-03T04:28:10.760Z,63.14
2022-12-03T04:30:38.745Z,63.22
2022-12-03T04:33:24.104Z,63.08
2022-12-03T04:35:50.891Z,63.23
2022-12-03T04:38:17.710Z,63.33
2022-12-03T04:41:04.573Z,63.21
2022-12-03T04:43:33.341Z,63.52
2022-12-03T04:46:01.229Z,63.71
2022-12-03T04:48:28.160Z,63.56
2022-12-03T04:50:54.844Z,63.53
2022-12-03T04:53:21.555Z,63.41
2022-12-03T04:55:48.282Z,63.54
2022-12-03T04:58:15.129Z,63.46
2022-12-03T05:00:41.980Z,63.43
2022-12-03T05:03:08.733Z,63.53
2022-12-03T05:05:35.449Z,63.56
2022-12-03T05:08:02.400Z,63.46
2022-12-03T05:10:29.151Z,63.05
2022-12-03T05:12:55.917Z,63.20
2022-12-03T05:15:22.902Z,63.12
2022-12-03T05:17:49.635Z,63.34
2022-12-03T05:20:34.932Z,63.69
2022-12-03T05:23:01.772Z,63.82
2022-12-03T05:25:28.496Z,63.52
2022-12-03T05:27:55.295Z,63.55
2022-12-03T05:30:22.811Z,63.50
2022-12-03T05:32:50.117Z,63.70
2022-12-03T05:35:17.624Z,63.63
2022-12-03T05:37:44.454Z,63.86
2022-12-03T05:40:12.109Z,63.87
2022-12-03T05:42:54.367Z,63.67
2022-12-03T05:45:21.998Z,64.04
2022-12-03T05:47:48.897Z,63.88
2022-12-03T05:50:16.008Z,63.79
2022-12-03T05:52:42.903Z,63.53
2022-12-03T05:55:10.973Z,63.70
2022-12-03T05:57:38.150Z,63.71
2022-12-03T06:00:07.398Z,63.89
2022-12-03T06:02:34.379Z,64.32
2022-12-03T06:05:01.275Z,64.67
2022-12-03T06:07:28.098Z,65.13
2022-12-03T06:09:54.865Z,65.38
2022-12-03T06:12:21.663Z,65.10
2022-12-03T06:14:48.393Z,65.60
2022-12-03T06:17:15.135Z,65.31
2022-12-03T06:19:41.895Z,65.64
2022-12-03T06:22:08.574Z,65.82
2022-12-03T06:24:35.268Z,65.68
2022-12-03T06:27:02.076Z,65.85
2022-12-03T06:29:28.811Z,66.34
2022-12-03T06:31:55.543Z,66.44
2022-12-03T06:34:22.387Z,66.87
2022-12-03T06:36:50.327Z,66.54
2022-12-03T06:39:17.769Z,66.77
2022-12-03T06:41:44.737Z,67.08
2022-12-03T06:44:11.546Z,66.64
2022-12-03T06:46:38.268Z,66.42
2022-12-03T06:49:05.170Z,66.41
2022-12-03T06:51:31.899Z,66.38
2022-12-03T06:53:58.609Z,66.47
2022-12-03T06:56:28.455Z,66.59
2022-12-03T06:58:59.739Z,66.21
2022-12-03T07:01:26.766Z,66.33
2022-12-03T07:03:53.546Z,66.22
2022-12-03T07:06:20.278Z,66.30
2022-12-03T07:08:47.076Z,66.28
2022-12-03T07:11:32.150Z,66.27
2022-12-03T07:14:05.175Z,66.48
2022-12-03T07:16:33.493Z,66.55
2022-12-03T07:19:00.282Z,66.68
2022-12-03T07:21:27.071Z,66.44
2022-12-03T07:23:53.754Z,66.67
2022-12-03T07:26:20.875Z,66.48
2022-12-03T07:28:48.513Z,66.75
2022-12-03T07:31:15.629Z,67.03
2022-12-03T07:33:42.910Z,67.21
2022-12-03T07:36:10.683Z,67.30
2022-12-03T07:38:37.721Z,67.99
2022-12-03T07:41:04.454Z,68.73
2022-12-03T07:43:31.353Z,69.20
2022-12-03T07:45:58.140Z,68.79
2022-12-03T07:48:24.884Z,68.86
2022-12-03T07:50:51.927Z,68.34
2022-12-03T07:53:18.776Z,68.09
2022-12-03T07:55:45.749Z,67.51
2022-12-03T07:58:12.571Z,67.32
2022-12-03T08:00:39.333Z,67.19
2022-12-03T08:03:06.039Z,67.05
2022-12-03T08:05:32.899Z,67.24
2022-12-03T08:08:00.699Z,66.93
2022-12-03T08:10:27.503Z,66.83
2022-12-03T08:12:56.579Z,66.44
2022-12-03T08:15:24.664Z,66.00
2022-12-03T08:18:00.767Z,66.02
2022-12-03T08:20:31.441Z,66.04
2022-12-03T08:22:58.175Z,65.93
2022-12-03T08:25:29.754Z,65.09
2022-12-03T08:28:23.732Z,64.74
2022-12-03T08:31:02.801Z,64.05
2022-12-03T08:33:36.350Z,63.99
2022-12-03T08:36:29.500Z,64.10
2022-12-03T08:39:01.051Z,63.61
2022-12-03T08:41:48.856Z,63.65
2022-12-03T08:44:24.017Z,63.77
2022-12-03T08:47:19.980Z,63.04
2022-12-03T08:50:06.974Z,61.77
2022-12-03T08:52:34.901Z,61.77
2022-12-03T08:55:30.994Z,62.09
2022-12-03T08:57:58.954Z,60.57
2022-12-03T09:00:26.059Z,59.31
2022-12-03T09:02:55.182Z,58.88
2022-12-03T09:05:23.736Z,56.47
2022-12-03T09:07:50.585Z,55.46
2022-12-03T09:10:17.605Z,55.17
2022-12-03T09:12:44.498Z,53.95
2022-12-03T09:15:11.503Z,53.69
2022-12-03T09:17:38.356Z,53.67
2022-12-03T09:20:06.511Z,53.02
2022-12-03T09:22:33.267Z,51.11
2022-12-03T09:25:00.031Z,49.81
2022-12-03T09:27:26.832Z,48.24
2022-12-03T09:29:53.556Z,48.44
2022-12-03T09:32:20.440Z,48.09
2022-12-03T09:34:47.464Z,47.64
2022-12-03T09:37:14.171Z,46.53
2022-12-03T09:39:40.992Z,46.87
2022-12-03T09:42:08.388Z,46.03
2022-12-03T09:44:35.968Z,44.97
2022-12-03T09:47:04.865Z,44.78
2022-12-03T09:49:33.477Z,45.10
2022-12-03T09:52:03.128Z,44.87
2022-12-03T09:54:32.336Z,44.35
2022-12-03T09:57:02.633Z,43.83
2022-12-03T09:59:34.797Z,44.41
2022-12-03T10:02:02.971Z,44.96
2022-12-03T10:04:31.360Z,45.39
2022-12-03T10:06:59.158Z,45.47
2022-12-03T10:09:28.319Z,45.06
2022-12-03T10:11:57.449Z,44.03
2022-12-03T10:14:24.695Z,43.81
2022-12-03T10:16:51.995Z,43.74
2022-12-03T10:19:29.526Z,43.71
2022-12-03T10:22:17.336Z,44.02
2022-12-03T10:24:45.163Z,43.69
2022-12-03T10:27:20.837Z,42.71
2022-12-03T10:29:56.809Z,42.55
2022-12-03T10:32:48.433Z,42.72
2022-12-03T10:35:35.960Z,41.85
2022-12-03T10:38:05.755Z,41.92
2022-12-03T10:40:37.810Z,42.50
2022-12-03T10:43:33.694Z,42.61
2022-12-03T10:46:04.424Z,41.91
2022-12-03T10:48:31.612Z,41.39
2022-12-03T10:51:07.175Z,40.30
2022-12-03T10:53:35.842Z,40.78
2022-12-03T10:56:06.039Z,38.72
2022-12-03T10:58:37.649Z,39.49
2022-12-03T11:01:15.068Z,38.27
2022-12-03T11:03:42.025Z,37.79
2022-12-03T11:06:18.702Z,36.50
2022-12-03T11:08:54.743Z,36.97
2022-12-03T11:11:29.028Z,36.99
2022-12-03T11:14:01.112Z,36.41
2022-12-03T11:16:39.672Z,35.29
2022-12-03T11:19:12.620Z,35.18
2022-12-03T11:22:18.342Z,33.79
2022-12-03T11:24:45.096Z,33.26
2022-12-03T11:30:11.074Z,32.36
2022-12-03T11:32:43.552Z,33.50
2022-12-03T11:35:26.735Z,32.96
2022-12-03T11:37:53.613Z,33.59
2022-12-03T11:40:21.280Z,34.12
2022-12-03T11:42:49.245Z,33.44
2022-12-03T11:45:28.712Z,31.59
2022-12-03T11:47:58.491Z,30.83
2022-12-03T11:50:57.390Z,30.77
2022-12-03T11:53:26.563Z,29.84
2022-12-03T11:56:06.675Z,29.93
2022-12-03T11:58:35.786Z,30.09
2022-12-03T12:01:05.479Z,29.75
2022-12-03T12:03:35.242Z,28.20
2022-12-03T12:06:14.319Z,28.87
2022-12-03T12:08:55.249Z,29.25
2022-12-03T12:11:36.662Z,29.62
2022-12-03T12:14:05.391Z,29.07
2022-12-03T12:16:55.484Z,29.43
2022-12-03T12:19:31.577Z,28.37
2022-12-03T12:22:31.621Z,28.38
2022-12-03T12:25:03.531Z,28.03
2022-12-03T12:27:39.517Z,28.57
2022-12-03T12:30:12.868Z,28.21
2022-12-03T12:32:47.968Z,28.33
2022-12-03T12:35:29.734Z,27.59
2022-12-03T12:38:08.899Z,27.30
2022-12-03T12:40:41.279Z,27.11
2022-12-03T12:43:17.763Z,27.61
2022-12-03T12:45:49.681Z,27.58
2022-12-03T12:48:27.878Z,27.56
2022-12-03T12:51:18.946Z,27.53
2022-12-03T12:53:46.055Z,27.14
2022-12-03T12:56:24.346Z,26.15
2022-12-03T12:58:51.568Z,26.77
2022-12-03T13:01:25.949Z,26.52
2022-12-03T13:03:53.438Z,27.02
2022-12-03T13:06:27.458Z,27.27
2022-12-03T13:08:55.063Z,27.74
2022-12-03T13:11:24.793Z,27.65
2022-12-03T13:13:52.536Z,27.47
2022-12-03T13:16:30.706Z,27.40
2022-12-03T13:18:59.376Z,29.35
2022-12-03T13:21:46.648Z,31.49
2022-12-03T13:24:39.802Z,33.68
2022-12-03T13:27:18.548Z,35.60
2022-12-03T13:29:47.916Z,36.91
2022-12-03T13:32:20.714Z,38.32
2022-12-03T13:34:50.627Z,39.91
2022-12-03T13:37:28.376Z,40.30
2022-12-03T13:40:06.153Z,41.20
2022-12-03T13:42:38.773Z,41.09
2022-12-03T13:45:24.959Z,41.71
2022-12-03T13:47:59.345Z,42.26
2022-12-03T13:50:26.327Z,43.29
2022-12-03T13:52:53.205Z,43.42
2022-12-03T13:55:27.590Z,43.22
2022-12-03T13:57:55.149Z,43.71
2022-12-03T14:00:22.332Z,43.64
2022-12-03T14:02:49.343Z,43.87
2022-12-03T14:05:16.844Z,43.71
2022-12-03T14:07:43.600Z,43.97
2022-12-03T14:10:12.302Z,44.25
2022-12-03T14:12:39.123Z,44.45
2022-12-03T14:15:06.864Z,44.95
2022-12-03T14:17:33.645Z,44.88
2022-12-03T14:20:01.519Z,45.08
2022-12-03T14:22:28.688Z,44.91
2022-12-03T14:24:55.815Z,45.18
2022-12-03T14:27:24.758Z,45.06
2022-12-03T14:29:52.239Z,45.32
2022-12-03T14:32:19.428Z,45.40
2022-12-03T14:34:46.147Z,45.56
2022-12-03T14:37:12.938Z,45.37
2022-12-03T14:39:39.980Z,44.95
2022-12-03T14:42:16.707Z,45.11
2022-12-03T14:44:49.051Z,45.22
2022-12-03T14:47:18.735Z,44.52
2022-12-03T14:49:46.192Z,44.60
2022-12-03T14:52:13.107Z,44.08
2022-12-03T14:54:42.824Z,44.17
2022-12-03T14:57:14.374Z,44.37
2022-12-03T14:59:42.688Z,44.26
2022-12-03T15:02:11.159Z,44.17
2022-12-03T15:04:38.713Z,44.24
2022-12-03T15:07:05.809Z,44.37
2022-12-03T15:09:32.860Z,44.48
2022-12-03T15:12:00.285Z,44.69
2022-12-03T15:14:27.139Z,44.99
2022-12-03T15:16:53.983Z,45.09
2022-12-03T15:19:20.845Z,44.92
2022-12-03T15:21:47.605Z,45.07
2022-12-03T15:24:14.312Z,44.84
2022-12-03T15:26:41.074Z,44.83
2022-12-03T15:29:07.781Z,44.92
2022-12-03T15:31:34.592Z,44.80
2022-12-03T15:34:01.670Z,44.88
2022-12-03T15:36:28.384Z,44.59
2022-12-03T15:38:55.092Z,44.73
2022-12-03T15:41:23.391Z,44.64
2022-12-03T15:43:53.030Z,45.02
2022-12-03T15:46:20.580Z,45.03
2022-12-03T15:48:48.140Z,45.25
2022-12-03T15:51:14.996Z,45.27
2022-12-03T15:53:41.885Z,45.32
2022-12-03T15:56:08.689Z,45.12
2022-12-03T15:58:35.409Z,45.82
2022-12-03T16:01:02.414Z,45.47
2022-12-03T16:03:29.285Z,45.43
2022-12-03T16:05:56.197Z,45.38
2022-12-03T16:08:23.173Z,45.24
2022-12-03T16:10:49.871Z,45.30
2022-12-03T16:13:16.636Z,45.35
2022-12-03T16:15:43.713Z,45.49
2022-12-03T16:18:10.505Z,45.52
2022-12-03T16:20:37.261Z,45.74
2022-12-03T16:23:04.231Z,45.75
2022-12-03T16:25:31.087Z,45.96
2022-12-03T16:27:57.897Z,46.15
2022-12-03T16:30:24.968Z,46.00
2022-12-03T16:32:51.756Z,45.88
2022-12-03T16:35:18.591Z,46.33
2022-12-03T16:37:45.494Z,46.22
2022-12-03T16:40:12.479Z,46.50
2022-12-03T16:42:39.219Z,46.41
2022-12-03T16:45:09.901Z,46.59
2022-12-03T16:47:37.032Z,46.87
2022-12-03T16:50:06.670Z,47.06
2022-12-03T16:52:33.721Z,47.42
2022-12-03T16:55:00.460Z,47.55
2022-12-03T16:57:33.127Z,47.81
2022-12-03T17:00:00.859Z,48.17
2022-12-03T17:02:28.017Z,48.12
2022-12-03T17:04:55.219Z,48.34
2022-12-03T17:07:21.991Z,48.48
2022-12-03T17:09:49.361Z,48.55
2022-12-03T17:12:16.129Z,48.70
2022-12-03T17:14:42.873Z,48.94
2022-12-03T17:17:09.710Z,48.98
2022-12-03T17:19:36.422Z,49.11
2022-12-03T17:22:08.283Z,49.15
2022-12-03T17:24:35.132Z,49.21
2022-12-03T17:27:01.863Z,49.38
2022-12-03T17:29:28.635Z,49.75
2022-12-03T17:31:55.570Z,49.91
2022-12-03T17:34:22.323Z,50.55
2022-12-03T17:36:49.045Z,51.23
2022-12-03T17:39:15.860Z,51.47
2022-12-03T17:41:42.620Z,51.93
2022-12-03T17:44:12.060Z,52.10
2022-12-03T17:46:40.902Z,52.34
2022-12-03T17:49:07.720Z,52.52
2022-12-03T17:51:34.511Z,52.30
2022-12-03T17:54:01.311Z,52.86
2022-12-03T17:56:28.037Z,52.93
2022-12-03T17:58:54.796Z,53.22
2022-12-03T18:01:21.638Z,53.49
2022-12-03T18:03:48.536Z,53.60
2022-12-03T18:06:15.354Z,54.10
2022-12-03T18:08:42.216Z,54.06
2022-12-03T18:11:08.970Z,54.52
2022-12-03T18:13:35.764Z,55.03
2022-12-03T18:16:02.593Z,55.58
2022-12-03T18:18:29.334Z,56.06
2022-12-03T18:20:56.257Z,56.29
2022-12-03T18:23:23.074Z,56.38
2022-12-03T18:25:49.859Z,56.98
2022-12-03T18:28:16.683Z,57.21
2022-12-03T18:30:49.088Z,57.96
2022-12-03T18:33:19.022Z,58.32
2022-12-03T18:35:45.847Z,59.15
2022-12-03T18:38:14.514Z,59.89
2022-12-03T18:40:44.408Z,59.45
2022-12-03T18:43:16.551Z,60.48
2022-12-03T18:45:43.467Z,60.95
2022-12-03T18:48:15.426Z,61.41
2022-12-03T18:50:43.381Z,61.39
2022-12-03T18:53:12.667Z,61.85
2022-12-03T18:55:40.706Z,62.58
2022-12-03T18:58:07.492Z,62.68
2022-12-03T19:00:35.891Z,62.99
2022-12-03T19:03:04.376Z,62.87
2022-12-03T19:05:34.308Z,62.84
2022-12-03T19:08:02.066Z,62.95
2022-12-03T19:10:28.978Z,62.66
2022-12-03T19:12:55.724Z,62.39
2022-12-03T19:15:23.094Z,62.36
2022-12-03T19:17:50.510Z,62.11
2022-12-03T19:20:17.297Z,61.82
2022-12-03T19:22:47.028Z,61.76
2022-12-03T19:25:13.946Z,61.59
2022-12-03T19:27:40.726Z,61.50
2022-12-03T19:30:08.092Z,61.30
2022-12-03T19:32:35.412Z,61.04
2022-12-03T19:35:05.361Z,61.08
2022-12-03T19:37:34.815Z,61.17
2022-12-03T19:40:01.622Z,61.15
2022-12-03T19:42:28.366Z,60.91
2022-12-03T19:44:55.217Z,60.92
2022-12-03T19:47:24.767Z,60.77
2022-12-03T19:49:53.444Z,60.71
2022-12-03T19:52:20.609Z,60.79
2022-12-03T19:54:47.386Z,60.74
2022-12-03T19:57:18.061Z,60.24
2022-12-03T19:59:48.396Z,60.37
2022-12-03T20:02:15.237Z,60.46
2022-12-03T20:04:42.018Z,60.27
2022-12-03T20:07:08.907Z,60.10
2022-12-03T20:09:35.658Z,60.16
2022-12-03T20:12:02.409Z,60.15
2022-12-03T20:14:29.638Z,60.33
2022-12-03T20:16:56.703Z,60.48
2022-12-03T20:19:23.502Z,60.42
2022-12-03T20:21:50.301Z,60.48
2022-12-03T20:24:17.868Z,60.38
2022-12-03T20:26:44.845Z,60.55
2022-12-03T20:29:11.885Z,60.22
2022-12-03T20:31:38.722Z,60.15
2022-12-03T20:34:05.569Z,60.29
2022-12-03T20:36:33.220Z,60.64
2022-12-03T20:39:07.087Z,60.72
2022-12-03T20:41:37.262Z,60.85
2022-12-03T20:44:06.157Z,61.90
2022-12-03T20:46:33.084Z,61.41
2022-12-03T20:49:00.275Z,61.22
2022-12-03T20:51:29.861Z,60.74
2022-12-03T20:53:57.670Z,61.11
2022-12-03T20:56:27.628Z,61.04
2022-12-03T20:58:54.697Z,61.37
2022-12-03T21:01:23.909Z,61.64
2022-12-03T21:03:52.606Z,61.74
2022-12-03T21:06:20.833Z,62.04
2022-12-03T21:08:48.906Z,62.41
2022-12-03T21:11:18.563Z,62.49
2022-12-03T21:13:46.080Z,62.79
2022-12-03T21:16:16.063Z,62.47
2022-12-03T21:18:43.156Z,62.73
2022-12-03T21:21:12.960Z,62.46
2022-12-03T21:23:39.809Z,62.53
2022-12-03T21:26:20.764Z,62.59
2022-12-03T21:28:51.101Z,62.73
2022-12-03T21:31:19.367Z,63.04
2022-12-03T21:33:46.352Z,62.05
2022-12-03T21:36:16.024Z,61.57
2022-12-03T21:38:44.484Z,61.37
2022-12-03T21:41:12.514Z,61.10
2022-12-03T21:43:39.226Z,61.47
2022-12-03T21:47:12.204Z,61.55
2022-12-03T21:49:00.127Z,61.81
2022-12-03T21:51:26.956Z,62.31
2022-12-03T21:53:53.668Z,62.46
2022-12-03T21:56:20.822Z,62.65
2022-12-03T21:58:47.799Z,63.03
2022-12-03T22:01:20.444Z,62.79
2022-12-03T22:03:47.568Z,63.47
2022-12-03T22:06:14.920Z,63.37
2022-12-03T22:08:41.829Z,63.57
2022-12-03T22:11:10.964Z,63.68
2022-12-03T22:13:39.103Z,64.00
2022-12-03T22:16:12.752Z,64.08
2022-12-03T22:18:40.187Z,64.45
2022-12-03T22:21:09.964Z,64.36
2022-12-03T22:23:37.461Z,64.34
2022-12-03T22:26:15.943Z,64.62
2022-12-03T22:28:44.582Z,64.23
2022-12-03T22:31:12.051Z,64.17
2022-12-03T22:33:39.331Z,64.27
2022-12-03T22:36:09.713Z,63.98
2022-12-03T22:38:39.372Z,64.13
2022-12-03T22:41:12.086Z,64.63
2022-12-03T22:43:39.047Z,64.25
2022-12-03T22:46:08.991Z,64.43
2022-12-03T22:48:36.731Z,64.53
2022-12-03T22:51:04.068Z,64.51
2022-12-03T22:53:30.815Z,64.80
2022-12-03T22:56:00.022Z,64.25
2022-12-03T22:58:27.976Z,64.32
2022-12-03T23:01:02.377Z,64.67
2022-12-03T23:03:30.185Z,64.87
2022-12-03T23:05:56.995Z,65.07
2022-12-03T23:08:23.932Z,65.58
2022-12-03T23:10:52.681Z,65.84
2022-12-03T23:13:20.213Z,66.26
2022-12-03T23:15:51.734Z,66.10
2022-12-03T23:18:19.810Z,66.30
2022-12-03T23:20:49.865Z,66.68
2022-12-03T23:23:19.384Z,66.40
2022-12-03T23:26:00.392Z,66.49
2022-12-03T23:28:29.301Z,66.58
2022-12-03T23:30:56.546Z,66.44
2022-12-03T23:33:23.754Z,66.64
2022-12-03T23:35:51.180Z,66.78
2022-12-03T23:38:18.543Z,66.65
2022-12-03T23:40:48.189Z,66.55
2022-12-03T23:43:15.836Z,66.54
2022-12-03T23:45:42.787Z,66.60
2022-12-03T23:48:09.604Z,66.70
2022-12-03T23:50:40.129Z,66.77
2022-12-03T23:53:07.134Z,67.10
2022-12-03T23:55:38.452Z,67.17
2022-12-03T23:58:05.154Z,67.52
